SBCJ

Carajás Airport

Carajás, Brazil
TAF SBCJ 251600Z 2518/2606 05005KT 9999 SCT015 TX28/2518Z TN22/2606Z BECMG 2520/2522 00000KT CAVOK RMK PFM
Issued Valid From Valid To
Sep-25 @ 16:00 UTC
(3 hours ago)
Sep-25 @ 18:00 UTC
(an hour ago)
Sep-26 @ 06:00 UTC
(in 11 hours)
Sep-25 @ 18:00 to Sep-25 @ 20:00
TAF SBCJ 251600Z 2518/2606 05005KT 9999 SCT015 TX28/2518Z TN22/2606Z
Wind Visibility Clouds
50° at 5 knots 10,000+ meters
  • Scattered at 1,500' AGL
Becoming Sep-25 @ 20:00 to Sep-26 @ 06:00
BECMG 2520/2522 00000KT CAVOK RMK PFM
Visibility Clouds Conditions
10,000+ meters
  • No significant clouds
TAF SBCJ 251600Z 2518/2606 05005KT 9999 SCT015 TX28/2518Z TN22/2606Z BECMG 2520/2522 00000KT CAVOK RMK PFM
Issued Sep-25 @ 16:00 UTC
(3 hours ago)
Valid From Sep-25 @ 18:00 UTC
(an hour ago)
Valid To Sep-26 @ 06:00 UTC
(in 11 hours)
Sep-25 @ 18:00 - Sep-25 @ 20:00
Wind Visibility
50° at 5 knots 10,000+ meters
Clouds
  • Scattered at 1,500' AGL
Becoming Sep-25 @ 20:00 - Sep-26 @ 06:00
Clouds
  • No significant clouds
Conditions